sensor_id;sensor_type;location;lat;lon;timestamp;P1;durP1;ratioP1;P2;durP2;ratioP2
55170;SDS011;41060;47.510;8.680;2023-04-09T00:01:07;10.55;;;5.35;;
55170;SDS011;41060;47.510;8.680;2023-04-09T00:03:34;7.38;;;4.63;;
55170;SDS011;41060;47.510;8.680;2023-04-09T00:06:02;5.88;;;4.65;;
55170;SDS011;41060;47.510;8.680;2023-04-09T00:08:29;6.55;;;4.75;;
55170;SDS011;41060;47.510;8.680;2023-04-09T00:10:56;9.02;;;4.47;;
55170;SDS011;41060;47.510;8.680;2023-04-09T00:13:23;8.70;;;5.05;;
55170;SDS011;41060;47.510;8.680;2023-04-09T00:15:52;7.85;;;4.65;;
55170;SDS011;41060;47.510;8.680;2023-04-09T00:18:18;10.45;;;5.22;;
55170;SDS011;41060;47.510;8.680;2023-04-09T00:20:45;9.55;;;4.70;;
55170;SDS011;41060;47.510;8.680;2023-04-09T00:23:12;11.70;;;5.75;;
55170;SDS011;41060;47.510;8.680;2023-04-09T00:25:38;10.45;;;5.50;;
55170;SDS011;41060;47.510;8.680;2023-04-09T00:28:05;8.57;;;4.88;;
55170;SDS011;41060;47.510;8.680;2023-04-09T00:30:32;11.43;;;5.55;;
55170;SDS011;41060;47.510;8.680;2023-04-09T00:33:00;13.43;;;5.38;;
55170;SDS011;41060;47.510;8.680;2023-04-09T00:35:26;11.88;;;5.00;;
55170;SDS011;41060;47.510;8.680;2023-04-09T00:37:53;10.10;;;4.88;;
55170;SDS011;41060;47.510;8.680;2023-04-09T00:40:20;8.52;;;5.10;;
55170;SDS011;41060;47.510;8.680;2023-04-09T00:42:46;8.10;;;5.20;;
55170;SDS011;41060;47.510;8.680;2023-04-09T00:45:13;10.77;;;5.53;;
55170;SDS011;41060;47.510;8.680;2023-04-09T00:47:40;11.00;;;5.60;;
55170;SDS011;41060;47.510;8.680;2023-04-09T00:50:10;10.43;;;5.22;;
55170;SDS011;41060;47.510;8.680;2023-04-09T00:52:38;10.38;;;6.32;;
55170;SDS011;41060;47.510;8.680;2023-04-09T00:55:04;9.63;;;5.43;;
55170;SDS011;41060;47.510;8.680;2023-04-09T00:57:33;9.50;;;4.53;;
55170;SDS011;41060;47.510;8.680;2023-04-09T01:00:03;8.63;;;5.57;;
55170;SDS011;41060;47.510;8.680;2023-04-09T01:02:31;10.27;;;5.97;;
55170;SDS011;41060;47.510;8.680;2023-04-09T01:04:58;9.48;;;5.13;;
55170;SDS011;41060;47.510;8.680;2023-04-09T01:07:30;9.43;;;5.32;;
55170;SDS011;41060;47.510;8.680;2023-04-09T01:10:10;9.80;;;5.30;;
55170;SDS011;41060;47.510;8.680;2023-04-09T01:12:45;12.43;;;6.90;;
55170;SDS011;41060;47.510;8.680;2023-04-09T01:15:21;13.77;;;6.93;;
55170;SDS011;41060;47.510;8.680;2023-04-09T01:17:53;8.10;;;5.22;;
55170;SDS011;41060;47.510;8.680;2023-04-09T01:20:28;7.95;;;5.28;;
55170;SDS011;41060;47.510;8.680;2023-04-09T01:23:04;8.98;;;5.00;;
55170;SDS011;41060;47.510;8.680;2023-04-09T01:25:42;12.07;;;6.65;;
55170;SDS011;41060;47.510;8.680;2023-04-09T01:28:18;19.15;;;8.55;;
55170;SDS011;41060;47.510;8.680;2023-04-09T01:30:51;13.85;;;7.38;;
55170;SDS011;41060;47.510;8.680;2023-04-09T01:33:33;9.40;;;5.45;;
55170;SDS011;41060;47.510;8.680;2023-04-09T01:36:02;9.82;;;5.57;;
55170;SDS011;41060;47.510;8.680;2023-04-09T01:38:31;10.98;;;5.78;;
55170;SDS011;41060;47.510;8.680;2023-04-09T01:41:00;11.63;;;5.40;;
55170;SDS011;41060;47.510;8.680;2023-04-09T01:43:30;9.77;;;5.63;;
55170;SDS011;41060;47.510;8.680;2023-04-09T01:45:58;12.15;;;5.88;;
55170;SDS011;41060;47.510;8.680;2023-04-09T01:48:27;9.75;;;6.25;;
55170;SDS011;41060;47.510;8.680;2023-04-09T01:50:54;11.70;;;6.10;;
55170;SDS011;41060;47.510;8.680;2023-04-09T01:53:21;9.40;;;5.53;;
55170;SDS011;41060;47.510;8.680;2023-04-09T01:55:48;11.38;;;6.03;;
55170;SDS011;41060;47.510;8.680;2023-04-09T01:58:15;10.00;;;6.72;;
55170;SDS011;41060;47.510;8.680;2023-04-09T02:00:44;10.00;;;4.78;;
55170;SDS011;41060;47.510;8.680;2023-04-09T02:03:15;12.77;;;5.63;;
55170;SDS011;41060;47.510;8.680;2023-04-09T02:05:45;10.25;;;5.32;;
55170;SDS011;41060;47.510;8.680;2023-04-09T02:08:19;10.45;;;5.05;;
55170;SDS011;41060;47.510;8.680;2023-04-09T02:10:48;11.88;;;6.10;;
55170;SDS011;41060;47.510;8.680;2023-04-09T02:13:17;13.43;;;7.30;;
55170;SDS011;41060;47.510;8.680;2023-04-09T02:15:47;11.73;;;5.95;;
55170;SDS011;41060;47.510;8.680;2023-04-09T02:18:22;14.40;;;6.63;;
55170;SDS011;41060;47.510;8.680;2023-04-09T02:20:50;13.27;;;5.57;;
55170;SDS011;41060;47.510;8.680;2023-04-09T02:23:17;12.48;;;6.43;;
55170;SDS011;41060;47.510;8.680;2023-04-09T02:25:43;9.20;;;5.25;;
55170;SDS011;41060;47.510;8.680;2023-04-09T02:28:10;10.32;;;6.00;;
55170;SDS011;41060;47.510;8.680;2023-04-09T02:30:37;12.27;;;6.35;;
55170;SDS011;41060;47.510;8.680;2023-04-09T02:33:05;10.25;;;6.45;;
55170;SDS011;41060;47.510;8.680;2023-04-09T02:35:32;10.50;;;5.53;;
55170;SDS011;41060;47.510;8.680;2023-04-09T02:37:59;12.00;;;6.28;;
55170;SDS011;41060;47.510;8.680;2023-04-09T02:40:26;12.60;;;6.40;;
55170;SDS011;41060;47.510;8.680;2023-04-09T02:42:53;10.75;;;5.93;;
55170;SDS011;41060;47.510;8.680;2023-04-09T02:45:20;9.38;;;5.90;;
55170;SDS011;41060;47.510;8.680;2023-04-09T02:47:49;11.05;;;5.25;;
55170;SDS011;41060;47.510;8.680;2023-04-09T02:50:19;15.27;;;6.10;;
55170;SDS011;41060;47.510;8.680;2023-04-09T02:52:46;8.98;;;5.30;;
55170;SDS011;41060;47.510;8.680;2023-04-09T02:55:12;10.38;;;6.47;;
55170;SDS011;41060;47.510;8.680;2023-04-09T02:57:40;11.50;;;6.88;;
55170;SDS011;41060;47.510;8.680;2023-04-09T03:00:06;10.02;;;6.10;;
55170;SDS011;41060;47.510;8.680;2023-04-09T03:02:34;12.57;;;6.47;;
55170;SDS011;41060;47.510;8.680;2023-04-09T03:05:01;8.13;;;5.28;;
55170;SDS011;41060;47.510;8.680;2023-04-09T03:07:29;15.15;;;6.82;;
55170;SDS011;41060;47.510;8.680;2023-04-09T03:09:55;11.27;;;5.97;;
55170;SDS011;41060;47.510;8.680;2023-04-09T03:12:22;13.48;;;7.55;;
55170;SDS011;41060;47.510;8.680;2023-04-09T03:14:49;10.00;;;5.88;;
55170;SDS011;41060;47.510;8.680;2023-04-09T03:17:15;9.82;;;5.10;;
55170;SDS011;41060;47.510;8.680;2023-04-09T03:19:42;9.73;;;5.65;;
55170;SDS011;41060;47.510;8.680;2023-04-09T03:22:09;11.50;;;5.47;;
55170;SDS011;41060;47.510;8.680;2023-04-09T03:24:37;11.38;;;6.05;;
55170;SDS011;41060;47.510;8.680;2023-04-09T03:27:04;8.45;;;5.65;;
55170;SDS011;41060;47.510;8.680;2023-04-09T03:29:30;10.15;;;5.13;;
55170;SDS011;41060;47.510;8.680;2023-04-09T03:31:57;8.70;;;5.20;;
55170;SDS011;41060;47.510;8.680;2023-04-09T03:34:24;10.07;;;5.85;;
55170;SDS011;41060;47.510;8.680;2023-04-09T03:36:50;10.02;;;5.70;;
55170;SDS011;41060;47.510;8.680;2023-04-09T03:39:17;7.88;;;5.47;;
55170;SDS011;41060;47.510;8.680;2023-04-09T03:41:45;8.98;;;5.18;;
55170;SDS011;41060;47.510;8.680;2023-04-09T03:44:12;8.90;;;4.97;;
55170;SDS011;41060;47.510;8.680;2023-04-09T03:46:39;7.75;;;5.45;;
55170;SDS011;41060;47.510;8.680;2023-04-09T03:49:06;9.68;;;5.30;;
55170;SDS011;41060;47.510;8.680;2023-04-09T03:51:32;11.80;;;5.57;;
55170;SDS011;41060;47.510;8.680;2023-04-09T03:53:59;10.25;;;5.75;;
55170;SDS011;41060;47.510;8.680;2023-04-09T03:56:29;11.30;;;5.72;;
55170;SDS011;41060;47.510;8.680;2023-04-09T03:58:56;9.95;;;5.75;;
55170;SDS011;41060;47.510;8.680;2023-04-09T04:01:23;10.70;;;5.60;;
55170;SDS011;41060;47.510;8.680;2023-04-09T04:03:50;9.95;;;5.45;;
55170;SDS011;41060;47.510;8.680;2023-04-09T04:06:16;11.10;;;5.20;;
55170;SDS011;41060;47.510;8.680;2023-04-09T04:08:43;9.43;;;5.43;;
55170;SDS011;41060;47.510;8.680;2023-04-09T04:11:10;8.30;;;4.82;;
55170;SDS011;41060;47.510;8.680;2023-04-09T04:13:37;11.13;;;5.65;;
55170;SDS011;41060;47.510;8.680;2023-04-09T04:16:07;11.65;;;5.00;;
55170;SDS011;41060;47.510;8.680;2023-04-09T04:18:34;12.23;;;7.07;;
55170;SDS011;41060;47.510;8.680;2023-04-09T04:21:01;10.95;;;5.40;;
55170;SDS011;41060;47.510;8.680;2023-04-09T04:23:27;13.57;;;6.50;;
55170;SDS011;41060;47.510;8.680;2023-04-09T04:25:54;9.93;;;6.30;;
55170;SDS011;41060;47.510;8.680;2023-04-09T04:28:22;12.43;;;6.25;;
55170;SDS011;41060;47.510;8.680;2023-04-09T04:30:48;14.23;;;6.90;;
55170;SDS011;41060;47.510;8.680;2023-04-09T04:33:17;11.95;;;5.97;;
55170;SDS011;41060;47.510;8.680;2023-04-09T04:35:43;8.32;;;4.68;;
55170;SDS011;41060;47.510;8.680;2023-04-09T04:38:10;24.27;;;5.40;;
55170;SDS011;41060;47.510;8.680;2023-04-09T04:40:37;12.93;;;6.57;;
55170;SDS011;41060;47.510;8.680;2023-04-09T04:43:03;9.70;;;6.03;;
55170;SDS011;41060;47.510;8.680;2023-04-09T04:45:30;11.23;;;5.45;;
55170;SDS011;41060;47.510;8.680;2023-04-09T04:47:57;13.32;;;6.43;;
55170;SDS011;41060;47.510;8.680;2023-04-09T04:50:25;12.93;;;5.45;;
55170;SDS011;41060;47.510;8.680;2023-04-09T04:52:51;8.82;;;5.35;;
55170;SDS011;41060;47.510;8.680;2023-04-09T04:55:18;11.50;;;5.93;;
55170;SDS011;41060;47.510;8.680;2023-04-09T04:57:45;13.27;;;6.30;;
55170;SDS011;41060;47.510;8.680;2023-04-09T05:00:12;9.77;;;5.72;;
55170;SDS011;41060;47.510;8.680;2023-04-09T05:02:39;12.45;;;5.82;;
55170;SDS011;41060;47.510;8.680;2023-04-09T05:05:06;13.15;;;6.07;;
55170;SDS011;41060;47.510;8.680;2023-04-09T05:07:34;13.23;;;6.20;;
55170;SDS011;41060;47.510;8.680;2023-04-09T05:10:01;13.15;;;5.45;;
55170;SDS011;41060;47.510;8.680;2023-04-09T05:12:30;11.05;;;5.00;;
55170;SDS011;41060;47.510;8.680;2023-04-09T05:14:56;8.43;;;5.38;;
55170;SDS011;41060;47.510;8.680;2023-04-09T05:17:23;13.80;;;6.13;;
55170;SDS011;41060;47.510;8.680;2023-04-09T05:19:50;9.98;;;6.25;;
55170;SDS011;41060;47.510;8.680;2023-04-09T05:22:17;12.00;;;6.95;;
55170;SDS011;41060;47.510;8.680;2023-04-09T05:24:45;10.40;;;5.18;;
55170;SDS011;41060;47.510;8.680;2023-04-09T05:27:12;8.93;;;5.43;;
55170;SDS011;41060;47.510;8.680;2023-04-09T05:29:38;10.77;;;6.43;;
55170;SDS011;41060;47.510;8.680;2023-04-09T05:32:05;10.45;;;6.63;;
55170;SDS011;41060;47.510;8.680;2023-04-09T05:34:33;12.40;;;6.47;;
55170;SDS011;41060;47.510;8.680;2023-04-09T05:37:00;12.20;;;6.57;;
55170;SDS011;41060;47.510;8.680;2023-04-09T05:39:27;11.38;;;5.80;;
55170;SDS011;41060;47.510;8.680;2023-04-09T05:41:55;9.00;;;5.45;;
55170;SDS011;41060;47.510;8.680;2023-04-09T05:44:21;11.07;;;5.28;;
55170;SDS011;41060;47.510;8.680;2023-04-09T05:46:48;13.07;;;6.70;;
55170;SDS011;41060;47.510;8.680;2023-04-09T05:49:15;11.98;;;7.10;;
55170;SDS011;41060;47.510;8.680;2023-04-09T05:51:41;9.20;;;6.03;;
55170;SDS011;41060;47.510;8.680;2023-04-09T05:54:09;10.57;;;5.75;;
55170;SDS011;41060;47.510;8.680;2023-04-09T05:56:35;12.32;;;6.65;;
55170;SDS011;41060;47.510;8.680;2023-04-09T05:59:03;9.82;;;6.05;;
55170;SDS011;41060;47.510;8.680;2023-04-09T06:01:30;12.55;;;5.60;;
55170;SDS011;41060;47.510;8.680;2023-04-09T06:03:57;11.38;;;5.13;;
55170;SDS011;41060;47.510;8.680;2023-04-09T06:06:23;12.73;;;6.35;;
55170;SDS011;41060;47.510;8.680;2023-04-09T06:08:50;12.45;;;6.22;;
55170;SDS011;41060;47.510;8.680;2023-04-09T06:11:17;12.57;;;6.15;;
55170;SDS011;41060;47.510;8.680;2023-04-09T06:13:44;11.55;;;6.35;;
55170;SDS011;41060;47.510;8.680;2023-04-09T06:16:12;10.35;;;5.22;;
55170;SDS011;41060;47.510;8.680;2023-04-09T06:18:38;9.90;;;5.10;;
55170;SDS011;41060;47.510;8.680;2023-04-09T06:21:07;11.75;;;6.40;;
55170;SDS011;41060;47.510;8.680;2023-04-09T06:23:35;10.73;;;6.28;;
55170;SDS011;41060;47.510;8.680;2023-04-09T06:26:02;10.93;;;5.70;;
55170;SDS011;41060;47.510;8.680;2023-04-09T06:28:28;12.63;;;6.20;;
55170;SDS011;41060;47.510;8.680;2023-04-09T06:30:56;14.75;;;6.63;;
55170;SDS011;41060;47.510;8.680;2023-04-09T06:33:24;11.80;;;6.00;;
55170;SDS011;41060;47.510;8.680;2023-04-09T06:35:50;5.95;;;3.95;;
55170;SDS011;41060;47.510;8.680;2023-04-09T06:38:17;12.65;;;5.47;;
55170;SDS011;41060;47.510;8.680;2023-04-09T06:40:50;11.85;;;6.97;;
55170;SDS011;41060;47.510;8.680;2023-04-09T06:43:16;17.40;;;6.57;;
55170;SDS011;41060;47.510;8.680;2023-04-09T06:45:43;12.73;;;6.57;;
55170;SDS011;41060;47.510;8.680;2023-04-09T06:48:10;15.45;;;7.38;;
55170;SDS011;41060;47.510;8.680;2023-04-09T06:50:38;10.90;;;5.32;;
55170;SDS011;41060;47.510;8.680;2023-04-09T06:53:05;9.02;;;5.13;;
55170;SDS011;41060;47.510;8.680;2023-04-09T06:55:32;12.35;;;6.93;;
55170;SDS011;41060;47.510;8.680;2023-04-09T06:57:58;13.40;;;6.97;;
55170;SDS011;41060;47.510;8.680;2023-04-09T07:00:27;11.90;;;7.00;;
55170;SDS011;41060;47.510;8.680;2023-04-09T07:02:53;13.15;;;5.90;;
55170;SDS011;41060;47.510;8.680;2023-04-09T07:05:20;11.75;;;5.47;;
55170;SDS011;41060;47.510;8.680;2023-04-09T07:07:49;11.68;;;6.28;;
55170;SDS011;41060;47.510;8.680;2023-04-09T07:10:16;12.93;;;6.63;;
55170;SDS011;41060;47.510;8.680;2023-04-09T07:12:43;13.00;;;6.38;;
55170;SDS011;41060;47.510;8.680;2023-04-09T07:15:10;13.00;;;5.82;;
55170;SDS011;41060;47.510;8.680;2023-04-09T07:17:37;13.30;;;5.82;;
55170;SDS011;41060;47.510;8.680;2023-04-09T07:20:03;13.75;;;5.65;;
55170;SDS011;41060;47.510;8.680;2023-04-09T07:22:31;11.77;;;6.13;;
55170;SDS011;41060;47.510;8.680;2023-04-09T07:24:59;13.65;;;7.13;;
55170;SDS011;41060;47.510;8.680;2023-04-09T07:27:26;8.90;;;5.10;;
55170;SDS011;41060;47.510;8.680;2023-04-09T07:29:56;12.35;;;5.78;;
55170;SDS011;41060;47.510;8.680;2023-04-09T07:32:23;11.98;;;6.63;;
55170;SDS011;41060;47.510;8.680;2023-04-09T07:34:51;8.68;;;5.47;;
55170;SDS011;41060;47.510;8.680;2023-04-09T07:37:18;10.25;;;5.05;;
55170;SDS011;41060;47.510;8.680;2023-04-09T07:39:45;11.00;;;5.82;;
55170;SDS011;41060;47.510;8.680;2023-04-09T07:42:14;9.68;;;5.75;;
55170;SDS011;41060;47.510;8.680;2023-04-09T07:44:41;11.93;;;5.80;;
55170;SDS011;41060;47.510;8.680;2023-04-09T07:47:07;11.73;;;5.80;;
55170;SDS011;41060;47.510;8.680;2023-04-09T07:49:35;8.55;;;4.30;;
55170;SDS011;41060;47.510;8.680;2023-04-09T07:52:03;9.82;;;5.82;;
55170;SDS011;41060;47.510;8.680;2023-04-09T07:54:30;8.00;;;5.15;;
55170;SDS011;41060;47.510;8.680;2023-04-09T07:56:57;15.30;;;7.63;;
55170;SDS011;41060;47.510;8.680;2023-04-09T07:59:25;12.18;;;7.00;;
55170;SDS011;41060;47.510;8.680;2023-04-09T08:01:52;10.32;;;4.65;;
55170;SDS011;41060;47.510;8.680;2023-04-09T08:04:19;13.05;;;6.10;;
55170;SDS011;41060;47.510;8.680;2023-04-09T08:06:46;12.52;;;6.15;;
55170;SDS011;41060;47.510;8.680;2023-04-09T08:09:14;12.43;;;5.97;;
55170;SDS011;41060;47.510;8.680;2023-04-09T08:11:41;11.85;;;7.25;;
55170;SDS011;41060;47.510;8.680;2023-04-09T08:14:10;13.13;;;6.28;;
55170;SDS011;41060;47.510;8.680;2023-04-09T08:16:39;10.40;;;7.07;;
55170;SDS011;41060;47.510;8.680;2023-04-09T08:19:06;15.88;;;8.40;;
55170;SDS011;41060;47.510;8.680;2023-04-09T08:21:35;13.15;;;5.70;;
55170;SDS011;41060;47.510;8.680;2023-04-09T08:24:02;11.35;;;6.10;;
55170;SDS011;41060;47.510;8.680;2023-04-09T08:26:29;12.23;;;5.07;;
55170;SDS011;41060;47.510;8.680;2023-04-09T08:28:56;13.60;;;6.28;;
55170;SDS011;41060;47.510;8.680;2023-04-09T08:31:23;9.95;;;5.22;;
55170;SDS011;41060;47.510;8.680;2023-04-09T08:33:51;9.35;;;5.07;;
55170;SDS011;41060;47.510;8.680;2023-04-09T08:36:18;10.52;;;4.85;;
55170;SDS011;41060;47.510;8.680;2023-04-09T08:38:45;11.68;;;4.90;;
55170;SDS011;41060;47.510;8.680;2023-04-09T08:41:15;10.73;;;6.10;;
55170;SDS011;41060;47.510;8.680;2023-04-09T08:43:43;8.80;;;5.82;;
55170;SDS011;41060;47.510;8.680;2023-04-09T08:46:11;9.98;;;6.03;;
55170;SDS011;41060;47.510;8.680;2023-04-09T08:48:40;15.48;;;6.72;;
55170;SDS011;41060;47.510;8.680;2023-04-09T08:51:12;11.75;;;5.70;;
55170;SDS011;41060;47.510;8.680;2023-04-09T08:56:09;7.78;;;4.90;;
55170;SDS011;41060;47.510;8.680;2023-04-09T08:58:41;8.95;;;5.07;;
55170;SDS011;41060;47.510;8.680;2023-04-09T09:01:19;10.90;;;5.05;;
55170;SDS011;41060;47.510;8.680;2023-04-09T09:03:53;12.70;;;6.10;;
55170;SDS011;41060;47.510;8.680;2023-04-09T09:06:24;10.57;;;5.80;;
55170;SDS011;41060;47.510;8.680;2023-04-09T09:08:59;11.43;;;5.70;;
55170;SDS011;41060;47.510;8.680;2023-04-09T09:11:28;11.20;;;5.25;;
55170;SDS011;41060;47.510;8.680;2023-04-09T09:14:02;9.70;;;4.90;;
55170;SDS011;41060;47.510;8.680;2023-04-09T09:16:31;11.77;;;5.57;;
55170;SDS011;41060;47.510;8.680;2023-04-09T09:18:59;9.70;;;6.03;;
55170;SDS011;41060;47.510;8.680;2023-04-09T09:21:27;10.52;;;5.57;;
55170;SDS011;41060;47.510;8.680;2023-04-09T09:23:55;9.88;;;5.03;;
55170;SDS011;41060;47.510;8.680;2023-04-09T09:26:22;11.45;;;5.43;;
55170;SDS011;41060;47.510;8.680;2023-04-09T09:28:50;10.70;;;5.32;;
55170;SDS011;41060;47.510;8.680;2023-04-09T09:31:18;11.30;;;5.57;;
55170;SDS011;41060;47.510;8.680;2023-04-09T09:33:46;11.05;;;4.93;;
55170;SDS011;41060;47.510;8.680;2023-04-09T09:36:14;9.07;;;4.82;;
55170;SDS011;41060;47.510;8.680;2023-04-09T09:38:58;15.00;;;6.25;;
55170;SDS011;41060;47.510;8.680;2023-04-09T09:41:29;9.82;;;5.05;;
55170;SDS011;41060;47.510;8.680;2023-04-09T09:43:56;8.98;;;4.70;;
55170;SDS011;41060;47.510;8.680;2023-04-09T09:46:24;12.30;;;5.85;;
55170;SDS011;41060;47.510;8.680;2023-04-09T09:48:51;8.15;;;5.57;;
55170;SDS011;41060;47.510;8.680;2023-04-09T09:51:20;13.85;;;5.50;;
55170;SDS011;41060;47.510;8.680;2023-04-09T09:53:50;11.10;;;5.47;;
55170;SDS011;41060;47.510;8.680;2023-04-09T09:56:23;9.23;;;5.63;;
55170;SDS011;41060;47.510;8.680;2023-04-09T09:58:59;12.38;;;5.85;;
55170;SDS011;41060;47.510;8.680;2023-04-09T10:01:28;9.35;;;5.45;;
55170;SDS011;41060;47.510;8.680;2023-04-09T10:03:58;10.25;;;5.20;;
55170;SDS011;41060;47.510;8.680;2023-04-09T10:06:28;8.75;;;5.53;;
55170;SDS011;41060;47.510;8.680;2023-04-09T10:08:56;9.95;;;5.32;;
55170;SDS011;41060;47.510;8.680;2023-04-09T10:11:27;10.10;;;4.75;;
55170;SDS011;41060;47.510;8.680;2023-04-09T10:13:55;8.68;;;4.93;;
55170;SDS011;41060;47.510;8.680;2023-04-09T10:16:23;10.77;;;4.55;;
55170;SDS011;41060;47.510;8.680;2023-04-09T10:18:51;11.82;;;6.05;;
55170;SDS011;41060;47.510;8.680;2023-04-09T10:21:24;9.98;;;5.32;;
55170;SDS011;41060;47.510;8.680;2023-04-09T10:24:04;10.25;;;5.40;;
55170;SDS011;41060;47.510;8.680;2023-04-09T10:26:33;11.93;;;5.35;;
55170;SDS011;41060;47.510;8.680;2023-04-09T10:29:05;9.98;;;5.13;;
55170;SDS011;41060;47.510;8.680;2023-04-09T10:31:46;15.55;;;6.25;;
55170;SDS011;41060;47.510;8.680;2023-04-09T10:34:15;10.02;;;5.65;;
55170;SDS011;41060;47.510;8.680;2023-04-09T10:36:43;11.38;;;5.75;;
55170;SDS011;41060;47.510;8.680;2023-04-09T10:39:10;10.98;;;5.38;;
55170;SDS011;41060;47.510;8.680;2023-04-09T10:41:39;9.18;;;4.88;;
55170;SDS011;41060;47.510;8.680;2023-04-09T10:44:18;10.63;;;5.32;;
55170;SDS011;41060;47.510;8.680;2023-04-09T10:46:46;9.63;;;4.70;;
55170;SDS011;41060;47.510;8.680;2023-04-09T10:49:14;9.43;;;5.28;;
55170;SDS011;41060;47.510;8.680;2023-04-09T10:51:46;8.32;;;4.20;;
55170;SDS011;41060;47.510;8.680;2023-04-09T10:57:17;11.07;;;5.20;;
55170;SDS011;41060;47.510;8.680;2023-04-09T10:59:46;8.32;;;4.57;;
55170;SDS011;41060;47.510;8.680;2023-04-09T11:05:23;10.45;;;4.50;;
55170;SDS011;41060;47.510;8.680;2023-04-09T11:07:55;8.80;;;5.13;;
55170;SDS011;41060;47.510;8.680;2023-04-09T11:10:28;6.57;;;4.00;;
55170;SDS011;41060;47.510;8.680;2023-04-09T11:12:57;6.82;;;3.95;;
55170;SDS011;41060;47.510;8.680;2023-04-09T11:15:26;8.48;;;4.05;;
55170;SDS011;41060;47.510;8.680;2023-04-09T11:17:53;7.65;;;3.90;;
55170;SDS011;41060;47.510;8.680;2023-04-09T11:20:22;7.03;;;4.05;;
55170;SDS011;41060;47.510;8.680;2023-04-09T11:22:50;5.50;;;3.13;;
55170;SDS011;41060;47.510;8.680;2023-04-09T11:25:18;8.48;;;3.90;;
55170;SDS011;41060;47.510;8.680;2023-04-09T11:27:46;7.60;;;2.90;;
55170;SDS011;41060;47.510;8.680;2023-04-09T11:30:14;9.77;;;4.30;;
55170;SDS011;41060;47.510;8.680;2023-04-09T11:32:41;8.65;;;3.63;;
55170;SDS011;41060;47.510;8.680;2023-04-09T11:35:11;7.63;;;2.92;;
55170;SDS011;41060;47.510;8.680;2023-04-09T11:37:39;6.13;;;2.25;;
55170;SDS011;41060;47.510;8.680;2023-04-09T11:40:07;6.03;;;2.85;;
55170;SDS011;41060;47.510;8.680;2023-04-09T11:45:08;4.88;;;3.30;;
55170;SDS011;41060;47.510;8.680;2023-04-09T11:47:37;7.28;;;3.53;;
55170;SDS011;41060;47.510;8.680;2023-04-09T11:50:05;6.72;;;3.17;;
55170;SDS011;41060;47.510;8.680;2023-04-09T11:52:33;6.63;;;3.00;;
55170;SDS011;41060;47.510;8.680;2023-04-09T11:55:00;6.82;;;3.33;;
55170;SDS011;41060;47.510;8.680;2023-04-09T11:57:35;6.85;;;2.90;;
55170;SDS011;41060;47.510;8.680;2023-04-09T12:00:04;7.80;;;3.30;;
55170;SDS011;41060;47.510;8.680;2023-04-09T12:02:33;4.93;;;2.80;;
55170;SDS011;41060;47.510;8.680;2023-04-09T12:05:03;5.45;;;3.13;;
55170;SDS011;41060;47.510;8.680;2023-04-09T12:07:31;6.30;;;3.20;;
55170;SDS011;41060;47.510;8.680;2023-04-09T12:10:02;4.07;;;2.42;;
55170;SDS011;41060;47.510;8.680;2023-04-09T12:12:30;6.70;;;3.10;;
55170;SDS011;41060;47.510;8.680;2023-04-09T12:15:16;7.40;;;3.20;;
55170;SDS011;41060;47.510;8.680;2023-04-09T12:17:45;7.03;;;3.28;;
55170;SDS011;41060;47.510;8.680;2023-04-09T12:20:22;5.47;;;2.85;;
55170;SDS011;41060;47.510;8.680;2023-04-09T12:22:52;4.35;;;2.53;;
55170;SDS011;41060;47.510;8.680;2023-04-09T12:25:19;5.07;;;3.20;;
55170;SDS011;41060;47.510;8.680;2023-04-09T12:27:45;4.78;;;2.72;;
55170;SDS011;41060;47.510;8.680;2023-04-09T12:30:12;3.28;;;2.13;;
55170;SDS011;41060;47.510;8.680;2023-04-09T12:32:39;4.05;;;2.78;;
55170;SDS011;41060;47.510;8.680;2023-04-09T12:35:07;5.05;;;2.33;;
55170;SDS011;41060;47.510;8.680;2023-04-09T12:37:35;4.22;;;2.10;;
55170;SDS011;41060;47.510;8.680;2023-04-09T12:40:05;4.45;;;1.85;;
55170;SDS011;41060;47.510;8.680;2023-04-09T12:42:32;6.05;;;2.58;;
55170;SDS011;41060;47.510;8.680;2023-04-09T12:45:00;4.68;;;2.72;;
55170;SDS011;41060;47.510;8.680;2023-04-09T12:47:26;5.30;;;2.20;;
55170;SDS011;41060;47.510;8.680;2023-04-09T12:49:53;4.13;;;2.72;;
55170;SDS011;41060;47.510;8.680;2023-04-09T12:52:20;3.97;;;2.05;;
55170;SDS011;41060;47.510;8.680;2023-04-09T12:54:50;5.90;;;2.88;;
55170;SDS011;41060;47.510;8.680;2023-04-09T12:57:17;4.10;;;2.08;;
55170;SDS011;41060;47.510;8.680;2023-04-09T12:59:44;3.97;;;2.10;;
55170;SDS011;41060;47.510;8.680;2023-04-09T13:02:10;4.88;;;2.30;;
55170;SDS011;41060;47.510;8.680;2023-04-09T13:04:39;3.67;;;2.33;;
55170;SDS011;41060;47.510;8.680;2023-04-09T13:07:06;4.32;;;2.05;;
55170;SDS011;41060;47.510;8.680;2023-04-09T13:09:32;4.82;;;2.28;;
55170;SDS011;41060;47.510;8.680;2023-04-09T13:12:01;5.95;;;2.80;;
55170;SDS011;41060;47.510;8.680;2023-04-09T13:14:29;2.65;;;1.77;;
55170;SDS011;41060;47.510;8.680;2023-04-09T13:16:55;3.78;;;2.17;;
55170;SDS011;41060;47.510;8.680;2023-04-09T13:19:22;4.28;;;2.50;;
55170;SDS011;41060;47.510;8.680;2023-04-09T13:21:49;4.07;;;2.28;;
55170;SDS011;41060;47.510;8.680;2023-04-09T13:24:16;3.55;;;2.28;;
55170;SDS011;41060;47.510;8.680;2023-04-09T13:26:42;4.07;;;2.40;;
55170;SDS011;41060;47.510;8.680;2023-04-09T13:29:11;5.13;;;2.03;;
55170;SDS011;41060;47.510;8.680;2023-04-09T13:31:38;6.32;;;2.72;;
55170;SDS011;41060;47.510;8.680;2023-04-09T13:34:04;4.88;;;2.67;;
55170;SDS011;41060;47.510;8.680;2023-04-09T13:36:32;3.90;;;2.22;;
55170;SDS011;41060;47.510;8.680;2023-04-09T13:38:59;3.42;;;1.90;;
55170;SDS011;41060;47.510;8.680;2023-04-09T13:41:28;2.65;;;1.88;;
55170;SDS011;41060;47.510;8.680;2023-04-09T13:43:56;5.82;;;2.03;;
55170;SDS011;41060;47.510;8.680;2023-04-09T13:46:24;3.88;;;2.13;;
55170;SDS011;41060;47.510;8.680;2023-04-09T13:48:51;3.40;;;2.03;;
55170;SDS011;41060;47.510;8.680;2023-04-09T13:51:19;5.57;;;2.47;;
55170;SDS011;41060;47.510;8.680;2023-04-09T13:53:46;3.47;;;2.20;;
55170;SDS011;41060;47.510;8.680;2023-04-09T13:56:13;3.38;;;2.05;;
55170;SDS011;41060;47.510;8.680;2023-04-09T13:58:40;3.97;;;1.98;;
55170;SDS011;41060;47.510;8.680;2023-04-09T14:01:08;3.92;;;1.88;;
55170;SDS011;41060;47.510;8.680;2023-04-09T14:03:36;3.40;;;1.90;;
55170;SDS011;41060;47.510;8.680;2023-04-09T14:06:05;5.85;;;2.05;;
55170;SDS011;41060;47.510;8.680;2023-04-09T14:08:32;4.63;;;2.00;;
55170;SDS011;41060;47.510;8.680;2023-04-09T14:10:59;3.58;;;1.60;;
55170;SDS011;41060;47.510;8.680;2023-04-09T14:13:26;2.70;;;1.83;;
55170;SDS011;41060;47.510;8.680;2023-04-09T14:15:53;4.78;;;2.28;;
55170;SDS011;41060;47.510;8.680;2023-04-09T14:18:20;3.50;;;1.60;;
55170;SDS011;41060;47.510;8.680;2023-04-09T14:20:48;3.95;;;1.98;;
55170;SDS011;41060;47.510;8.680;2023-04-09T14:23:15;3.72;;;1.88;;
55170;SDS011;41060;47.510;8.680;2023-04-09T14:25:41;3.20;;;1.90;;
55170;SDS011;41060;47.510;8.680;2023-04-09T14:28:08;4.63;;;2.10;;
55170;SDS011;41060;47.510;8.680;2023-04-09T14:30:35;3.63;;;2.22;;
55170;SDS011;41060;47.510;8.680;2023-04-09T14:33:01;3.85;;;2.22;;
55170;SDS011;41060;47.510;8.680;2023-04-09T14:35:28;3.17;;;2.10;;
55170;SDS011;41060;47.510;8.680;2023-04-09T14:37:56;2.70;;;1.60;;
55170;SDS011;41060;47.510;8.680;2023-04-09T14:40:23;3.35;;;1.60;;
55170;SDS011;41060;47.510;8.680;2023-04-09T14:42:50;4.43;;;1.40;;
55170;SDS011;41060;47.510;8.680;2023-04-09T14:45:17;2.35;;;1.50;;
55170;SDS011;41060;47.510;8.680;2023-04-09T14:47:43;3.38;;;1.65;;
55170;SDS011;41060;47.510;8.680;2023-04-09T14:50:10;3.17;;;1.75;;
55170;SDS011;41060;47.510;8.680;2023-04-09T14:52:37;2.80;;;1.75;;
55170;SDS011;41060;47.510;8.680;2023-04-09T14:55:05;5.10;;;2.00;;
55170;SDS011;41060;47.510;8.680;2023-04-09T14:57:37;2.10;;;1.40;;